• Join FlightAware (Why Join?)
  • Login
  • US Flag 
02:34AM EDT


 

Airport Tracker/Info


-or-


 

Live Flight TrackerFlight Track Log ✈ N411CC ✈ 02-Oct-2013 ✈ KMFR - KUAO

Flight Track Log - Related Links

Times and Time Zones

All times are in EDT time to prevent confusion due to time zone crossing. See the N411CC flight status page for this flight to view local times or setup timezone preferences in your user account.

Time Position Orientation Groundspeed Altitude Reporting Facility
EDT Latitude Longitude Course Direction KTS MPH feet Rate Location/Type
07:30PM 42.5006 -122.9875 North 164 189 8,200  Level Seattle Center
07:31PM 42.5378 -123.0119 334° Northwest 164 189 9,700 1,320 Climbing Seattle Center
07:32PM 42.5856 -123.0056 North 171 197 11,000 1,320 Climbing Seattle Center
07:33PM 42.7514 -122.8605 North  Level Estimated
07:33PM 42.6381 -123.0008 North 186 214 12,400  Level Seattle Center
07:34PM 42.8143 -122.8599 North  Level FlightAware Approximate
07:34PM 42.6911 -122.9964 North 190 219 14,000  Level Seattle Center
07:35PM 42.8772 -122.8594 North  Level FlightAware Approximate
07:35PM 42.7400 -122.9931 North 175 201 15,700  Level Seattle Center
07:36PM 42.9401 -122.8589 North  Level FlightAware Approximate
07:36PM 42.7944 -122.9900 North 201 231 16,000  Level Seattle Center
07:37PM 42.8614 -122.9839 North 240 276 16,000  Level Seattle Center
07:39PM 42.9439 -122.9772 North 248 285 16,000  Level Seattle Center
07:40PM 43.0128 -122.9700 North 248 285 16,000  Level Seattle Center
07:41PM 43.0822 -122.9633 North 249 287 16,000 300 Level Seattle Center
07:42PM 43.1500 -122.9564 North 244 281 16,700 480 Climbing Seattle Center
07:43PM 43.2131 -122.9506 North 229 264 17,000 180 Climbing Seattle Center
07:44PM 43.2808 -122.9414 North 243 280 17,100  Climbing Seattle Center
07:45PM 43.3497 -122.9431 359° North 247 284 17,000 -60 Descending Seattle Center
07:46PM 43.4214 -122.9356 North 253 291 17,000  Level Seattle Center
07:47PM 43.4911 -122.9322 North 253 291 17,000  Level Seattle Center
07:48PM 43.5603 -122.9431 354° North 249 287 17,000  Level Seattle Center
07:49PM 43.6306 -122.9458 358° North 252 290 17,000  Level Seattle Center
07:50PM 43.6994 -122.9567 354° North 248 285 17,000  Level Seattle Center
07:51PM 43.7850 -122.9650 356° North 256 295 17,000  Level Seattle Center
07:52PM 43.8539 -122.9767 353° North 250 288 17,000  Level Seattle Center
07:53PM 43.9242 -122.9878 354° North 254 292 17,000  Level Seattle Center
07:54PM 43.9961 -122.9833 North 262 302 17,000  Level Seattle Center
07:55PM 44.0694 -122.9692 North 266 306 17,000  Level Seattle Center
07:56PM 44.1417 -122.9575 North 263 303 17,000 -300 Level Seattle Center
07:57PM 44.2158 -122.9453 North 270 311 16,400 -600 Descending Seattle Center
07:58PM 44.2897 -122.9331 North 269 310 15,900 -720 Descending Seattle Center
07:59PM 44.3692 -122.9203 North 271 312 15,000 -840 Descending Seattle Center
08:00PM 44.4428 -122.9072 North 269 310 14,200 -960 Descending Seattle Center
08:01PM 44.5186 -122.8953 North 275 316 13,100 -1,080 Descending Seattle Center
08:02PM 44.5900 -122.8825 North 262 302 12,100 -1,140 Descending Seattle Center
08:03PM 44.6600 -122.8711 North 257 296 10,900 -1,200 Descending Seattle Center
08:04PM 44.7297 -122.8583 North 254 292 9,700 -1,380 Descending Seattle Center
08:05PM 44.7986 -122.8483 North 251 289 8,200 -1,560 Descending Seattle Center
08:06PM 44.8797 -122.8331 North 245 282 6,600 -1,500 Descending Seattle Center
08:06PM 44.9081 -122.8261 10° North 227 261 6,000 -1,260 Descending Seattle Center
08:07PM 44.9378 -122.8233 North 217 250 5,400 -1,140 Descending Seattle Center
08:07PM 44.9392 -122.8239 344° North 218 251 5,400 -900 Level Seattle Center
08:08PM 44.9900 -122.8147 North 199 229 4,500 -900 Descending Seattle Center
08:08PM 44.9903 -122.8139 65° Northeast 186 214 4,500 -540 Level Seattle Center
08:09PM 45.0406 -122.8067 North 186 214 4,000 -540 Descending Seattle Center
08:09PM 45.0400 -122.8078 235° Southwest 182 209 4,000 -1,380 Level Seattle Center
08:10PM 45.0847 -122.8011 North 161 185 2,600 -1,380 Descending Seattle Center
08:10PM 45.0853 -122.8000 55° Northeast 167 192 2,600 -540 Level Seattle Center
08:11PM 45.1283 -122.7917 North 160 184 2,100 -360 Descending Seattle Center
08:12PM 45.1711 -122.7806 10° North 159 183 1,900 -180 Descending Seattle Center
08:13PM 45.2131 -122.7644 15° North 158 182 1,800 -240 Descending Seattle Center
08:14PM 45.2508 -122.7389 25° Northeast 156 180 1,500 -540 Descending Seattle Center
08:15PM 45.2728 -122.7622 323° Northwest 143 165 800 -660 Descending Seattle Center
08:16PM 45.2439 -122.7711 192° South 118 136 200 -600 Descending Seattle Center